Time;durP1;ratioP1;P1;durP2;ratioP2;P2;SDS_P1;SDS_P2;PMS_P1;PMS_P2;Temp;Humidity;BMP_temperature;BMP_pressure;BME280_temperature;BME280_humidity;BME280_pressure;Samples;Min_cycle;Max_cycle;Signal;HPM_P1;HPM_P2
2022/02/02 00:03:01;;;;;;;4.88;2.30;;;10.30;99.90;;;;;;5037565;28;20488;-56
2022/02/02 00:11:23;;;;;;;7.65;2.60;;;10.30;99.90;;;;;;5038007;28;20499;-57
2022/02/02 00:13:13;;;;;;;4.63;2.13;;;10.30;99.90;;;;;;5033688;28;20106;-58
2022/02/02 00:16:03;;;;;;;9.23;2.50;;;10.20;99.90;;;;;;5045621;28;20052;-57
2022/02/02 00:21:21;;;;;;;10.68;2.67;;;10.20;99.90;;;;;;5036672;28;20045;-58
2022/02/02 00:23:52;;;;;;;4.22;2.30;;;10.20;99.90;;;;;;5046046;28;20475;-57
2022/02/02 00:26:25;;;;;;;7.05;2.90;;;10.20;99.90;;;;;;5035996;28;20054;-58
2022/02/02 00:28:57;;;;;;;7.47;2.30;;;10.10;99.90;;;;;;5038729;28;20106;-57
2022/02/02 00:31:30;;;;;;;4.97;2.17;;;10.20;99.90;;;;;;5039248;28;20049;-56
2022/02/02 00:34:02;;;;;;;3.40;2.40;;;10.20;99.90;;;;;;5032491;28;20378;-58
2022/02/02 00:36:37;;;;;;;5.35;2.90;;;10.10;99.90;;;;;;5037760;28;20080;-57
2022/02/02 00:39:04;;;;;;;6.90;2.53;;;10.10;99.90;;;;;;5048070;28;20077;-58
2022/02/02 00:41:31;;;;;;;5.50;2.35;;;10.10;99.90;;;;;;5038656;28;21310;-58
2022/02/02 00:44:00;;;;;;;9.70;3.08;;;10.10;99.90;;;;;;5031606;28;20084;-58
2022/02/02 00:46:28;;;;;;;6.05;2.42;;;10.10;99.90;;;;;;5045888;28;20067;-56
2022/02/02 00:49:00;;;;;;;6.03;2.42;;;10.10;99.90;;;;;;5043734;28;20128;-57
2022/02/02 00:51:49;;;;;;;5.18;2.55;;;10.10;99.90;;;;;;5038931;28;20136;-57
2022/02/02 00:54:21;;;;;;;3.60;2.10;;;10.10;99.90;;;;;;5039164;28;20133;-56
2022/02/02 00:56:48;;;;;;;7.18;2.60;;;10.10;99.90;;;;;;5029851;28;20158;-59
2022/02/02 00:59:15;;;;;;;7.05;2.30;;;10.00;99.90;;;;;;5031961;28;20180;-56
2022/02/02 01:01:42;;;;;;;3.95;2.05;;;10.00;99.90;;;;;;5037187;28;20041;-58
2022/02/02 01:04:09;;;;;;;8.57;2.42;;;10.00;99.90;;;;;;5032479;28;20042;-57
2022/02/02 01:06:44;;;;;;;4.20;2.50;;;10.00;99.90;;;;;;5032722;28;20077;-58
2022/02/02 01:09:24;;;;;;;4.93;2.28;;;10.00;99.90;;;;;;5033479;28;20144;-57
2022/02/02 01:12:34;;;;;;;5.45;2.03;;;10.00;99.90;;;;;;5038022;28;20106;-57
2022/02/02 01:17:46;;;;;;;4.47;2.22;;;10.00;99.90;;;;;;5045011;28;20072;-56
2022/02/02 01:20:29;;;;;;;6.63;2.13;;;10.00;99.90;;;;;;5041661;28;20077;-58
2022/02/02 01:28:33;;;;;;;7.10;3.22;;;10.00;99.90;;;;;;4884840;28;10001267;-57
2022/02/02 01:31:01;;;;;;;4.88;2.63;;;9.90;99.90;;;;;;5035433;28;20837;-57
2022/02/02 01:33:28;;;;;;;9.00;2.58;;;9.90;99.90;;;;;;5046141;28;20130;-56
2022/02/02 01:35:56;;;;;;;7.95;3.20;;;9.90;99.90;;;;;;5039357;28;20122;-57
2022/02/02 01:38:25;;;;;;;5.32;2.60;;;9.90;99.90;;;;;;5040136;28;20133;-57
2022/02/02 01:41:01;;;;;;;6.35;3.38;;;9.90;99.90;;;;;;5036107;28;20080;-57
2022/02/02 01:43:35;;;;;;;6.35;2.53;;;9.90;99.90;;;;;;5037441;28;20516;-57
2022/02/02 01:46:10;;;;;;;6.47;2.45;;;9.80;99.90;;;;;;5024955;28;20489;-57
2022/02/02 01:49:00;;;;;;;6.20;2.47;;;9.80;99.90;;;;;;5035397;28;20150;-57
2022/02/02 01:54:29;;;;;;;4.95;2.75;;;9.80;99.90;;;;;;5031065;28;20081;-56
2022/02/02 01:56:49;;;;;;;11.95;3.00;;;9.80;99.90;;;;;;5016990;28;20092;-59
2022/02/02 01:59:35;;;;;;;7.40;3.03;;;9.80;99.90;;;;;;5026096;28;20087;-57
2022/02/02 02:02:03;;;;;;;6.53;3.90;;;9.80;99.90;;;;;;5017543;28;20084;-59
2022/02/02 02:04:30;;;;;;;8.77;3.55;;;9.80;99.90;;;;;;5038641;28;20041;-58
2022/02/02 02:06:56;;;;;;;7.72;3.20;;;9.80;99.90;;;;;;5037721;28;20077;-55
2022/02/02 02:09:25;;;;;;;7.80;3.80;;;9.70;99.90;;;;;;5036300;28;20080;-56
2022/02/02 02:12:11;;;;;;;5.80;2.80;;;9.70;99.90;;;;;;5027456;28;20045;-57
2022/02/02 02:15:02;;;;;;;7.35;3.08;;;9.70;99.90;;;;;;5029106;28;20069;-56
2022/02/02 02:17:29;;;;;;;7.78;3.38;;;9.70;99.90;;;;;;5027754;28;20446;-56
2022/02/02 02:19:55;;;;;;;5.70;3.15;;;9.70;99.90;;;;;;5011073;28;20156;-56
2022/02/02 02:22:30;;;;;;;6.28;2.75;;;9.70;99.90;;;;;;5036771;28;20077;-56
2022/02/02 02:24:57;;;;;;;6.32;3.30;;;9.70;99.90;;;;;;5044729;28;20057;-57
2022/02/02 02:27:25;;;;;;;10.40;3.38;;;9.70;99.90;;;;;;5043734;28;20041;-55
2022/02/02 02:40:16;;;;;;;7.03;2.70;;;9.70;99.90;;;;;;5035524;28;20108;-57
2022/02/02 02:56:31;;;;;;;8.00;2.25;;;9.70;99.90;;;;;;5022091;28;20080;-56
2022/02/02 02:59:03;;;;;;;13.05;2.90;;;9.70;99.90;;;;;;5033985;28;20077;-56
2022/02/02 03:32:54;;;;;;;3.22;2.08;;;9.80;99.90;;;;;;5035189;28;20076;-57
2022/02/02 03:35:10;;;;;;;10.05;2.50;;;9.70;99.90;;;;;;5025988;28;20072;-59
2022/02/02 03:59:34;;;;;;;4.15;2.25;;;9.70;99.90;;;;;;5031575;28;20111;-57
2022/02/02 04:07:04;;;;;;;2.83;2.03;;;9.70;99.90;;;;;;5049516;28;20044;-57
2022/02/02 04:09:34;;;;;;;;;;;9.70;99.90;;;;;;5045637;28;20484;-57
2022/02/02 05:03:52;;;;;;;8.65;4.00;;;9.80;99.90;;;;;;5035744;28;20049;-54
2022/02/02 05:09:47;;;;;;;8.38;3.33;;;9.80;99.90;;;;;;5032882;28;20096;-55
2022/02/02 05:15:24;;;;;;;6.88;3.13;;;9.80;99.90;;;;;;5030245;28;20140;-56
2022/02/02 05:17:23;;;;;;;8.13;3.45;;;9.90;99.90;;;;;;5030658;28;20100;-55
2022/02/02 05:49:06;;;;;;;5.75;2.72;;;9.90;99.90;;;;;;5035699;28;20049;-55
2022/02/02 05:51:38;;;;;;;9.65;3.05;;;9.90;99.90;;;;;;5045369;28;20053;-57
2022/02/02 05:54:06;;;;;;;8.48;2.90;;;9.80;99.90;;;;;;5035881;28;20072;-57
2022/02/02 05:56:53;;;;;;;8.73;2.88;;;9.80;99.90;;;;;;5014831;28;20068;-56
2022/02/02 05:59:23;;;;;;;7.05;2.90;;;9.80;99.90;;;;;;5038042;28;20070;-57
2022/02/02 06:01:55;;;;;;;5.97;2.72;;;9.80;99.90;;;;;;5027762;28;20088;-56
2022/02/02 06:04:23;;;;;;;4.32;2.28;;;9.80;99.90;;;;;;5035631;28;20045;-56
2022/02/02 06:06:50;;;;;;;6.10;2.42;;;9.80;99.90;;;;;;5047098;28;20045;-57
2022/02/02 06:09:18;;;;;;;4.90;2.50;;;9.80;99.90;;;;;;5039849;28;20076;-58
2022/02/02 06:11:49;;;;;;;7.72;2.72;;;9.80;99.90;;;;;;5042246;28;20110;-56
2022/02/02 06:14:18;;;;;;;7.05;2.65;;;9.80;99.90;;;;;;5024396;28;20077;-57
2022/02/02 06:16:45;;;;;;;8.88;3.55;;;9.90;99.90;;;;;;5010059;28;20095;-56
2022/02/02 06:19:12;;;;;;;6.80;3.05;;;9.90;99.90;;;;;;5037719;28;20049;-57
2022/02/02 06:21:39;;;;;;;6.03;2.30;;;9.90;99.90;;;;;;5027640;28;20045;-57
2022/02/02 06:24:13;;;;;;;4.03;2.00;;;9.90;99.90;;;;;;5036553;28;20045;-54
2022/02/02 06:26:41;;;;;;;6.40;2.50;;;9.90;99.90;;;;;;5026874;28;20075;-55
2022/02/02 06:29:09;;;;;;;3.85;2.13;;;9.90;99.90;;;;;;5034980;28;20119;-57
2022/02/02 06:31:37;;;;;;;5.55;1.95;;;9.90;99.90;;;;;;5042717;28;20476;-53
2022/02/02 06:34:07;;;;;;;8.95;2.30;;;9.90;99.90;;;;;;5040926;28;20110;-54
2022/02/02 06:36:36;;;;;;;6.03;2.47;;;9.90;99.90;;;;;;5037497;28;20436;-55
2022/02/02 06:39:04;;;;;;;5.70;2.25;;;10.00;99.90;;;;;;5040051;28;20055;-59
2022/02/02 06:41:31;;;;;;;4.53;2.63;;;10.00;99.90;;;;;;5025008;28;20102;-58
2022/02/02 06:43:57;;;;;;;4.47;2.33;;;10.00;99.90;;;;;;5037526;28;20044;-57
2022/02/02 06:46:29;;;;;;;4.72;2.33;;;10.00;99.90;;;;;;5035679;28;20152;-57
2022/02/02 06:48:56;;;;;;;2.83;2.20;;;10.00;99.90;;;;;;5040966;28;20049;-56
2022/02/02 06:54:18;;;;;;;10.07;2.80;;;9.90;99.90;;;;;;5042854;28;20057;-57
2022/02/02 06:56:52;;;;;;;8.10;2.45;;;9.90;99.90;;;;;;5036728;28;20053;-57
2022/02/02 06:59:30;;;;;;;4.38;2.17;;;9.80;99.90;;;;;;5028538;28;20053;-57
2022/02/02 07:08:01;;;;;;;7.82;2.13;;;9.80;99.90;;;;;;5030827;28;20073;-57
2022/02/02 07:29:33;;;;;;;8.38;2.97;;;9.80;99.90;;;;;;5045964;28;20041;-59
2022/02/02 07:37:34;;;;;;;6.28;1.85;;;9.70;99.90;;;;;;5038529;28;20045;-58
2022/02/02 07:40:04;;;;;;;8.15;2.50;;;9.70;99.90;;;;;;5048820;28;20076;-59
2022/02/02 07:42:31;;;;;;;11.95;2.60;;;9.60;99.90;;;;;;5019434;28;20514;-58
2022/02/02 07:45:07;;;;;;;4.57;2.88;;;9.60;99.90;;;;;;5042382;28;20160;-57
2022/02/02 07:47:40;;;;;;;5.90;2.60;;;9.60;99.90;;;;;;5022115;28;20460;-58
2022/02/02 07:50:10;;;;;;;6.00;3.13;;;9.60;99.90;;;;;;5041774;28;20452;-56
2022/02/02 07:52:37;;;;;;;5.22;2.33;;;9.50;99.90;;;;;;5038729;28;20100;-58
2022/02/02 07:55:06;;;;;;;3.10;2.20;;;9.50;99.90;;;;;;5039337;28;20048;-56
2022/02/02 07:57:34;;;;;;;4.15;2.50;;;9.40;99.90;;;;;;5041051;28;20120;-58
2022/02/02 08:00:05;;;;;;;4.00;2.58;;;9.40;99.90;;;;;;5039938;28;20444;-57
2022/02/02 08:05:00;;;;;;;5.82;2.60;;;9.30;99.90;;;;;;5041150;28;20167;-60
2022/02/02 08:07:33;;;;;;;4.93;2.65;;;9.30;99.90;;;;;;5040882;28;20406;-57
2022/02/02 08:12:42;;;;;;;7.13;3.38;;;9.20;99.90;;;;;;5023040;28;20133;-58
2022/02/02 08:15:10;;;;;;;8.63;3.08;;;9.20;99.90;;;;;;5007087;28;20081;-59
2022/02/02 08:17:38;;;;;;;5.28;3.00;;;9.20;99.90;;;;;;5039843;28;20083;-57
2022/02/02 08:20:08;;;;;;;6.05;2.70;;;9.20;99.90;;;;;;5026138;28;20076;-59
2022/02/02 08:22:39;;;;;;;4.75;3.60;;;9.20;99.90;;;;;;5020994;28;20044;-59
2022/02/02 08:25:08;;;;;;;7.47;2.58;;;9.20;99.90;;;;;;5037755;28;20101;-58
2022/02/02 08:27:40;;;;;;;7.75;2.85;;;9.10;99.90;;;;;;5045174;28;20128;-59
2022/02/02 08:30:11;;;;;;;7.82;3.33;;;9.10;99.90;;;;;;5025659;28;20049;-58
2022/02/02 08:32:43;;;;;;;4.65;3.20;;;9.10;99.90;;;;;;5034141;28;20103;-60
2022/02/02 08:35:11;;;;;;;5.07;3.22;;;9.10;99.90;;;;;;5034826;28;20120;-58
2022/02/02 08:37:41;;;;;;;4.03;3.15;;;9.10;99.90;;;;;;4687224;28;10000562;-58
2022/02/02 08:40:21;;;;;;;3.90;2.80;;;9.10;99.90;;;;;;5037696;28;20050;-59
2022/02/02 08:42:48;;;;;;;5.22;3.25;;;9.10;99.90;;;;;;5027934;28;20094;-56
2022/02/02 08:45:19;;;;;;;10.32;3.85;;;9.10;99.90;;;;;;5036834;28;20041;-59
2022/02/02 08:48:10;;;;;;;4.68;3.17;;;9.10;99.90;;;;;;5030441;28;20129;-58
2022/02/02 08:50:44;;;;;;;3.70;2.85;;;9.10;99.90;;;;;;5024985;28;20514;-58
2022/02/02 08:53:28;;;;;;;8.73;3.28;;;9.10;99.90;;;;;;5032249;28;20103;-57
2022/02/02 08:58:45;;;;;;;5.45;3.15;;;9.20;99.90;;;;;;5019634;28;20061;-59
2022/02/02 09:01:27;;;;;;;4.32;2.70;;;9.20;99.90;;;;;;5035987;28;20097;-58
2022/02/02 09:06:40;;;;;;;4.55;3.17;;;9.40;99.90;;;;;;5033056;28;20096;-58
2022/02/02 09:09:21;;;;;;;4.97;3.15;;;9.40;99.90;;;;;;5039736;28;20045;-58
2022/02/02 09:25:08;;;;;;;6.88;3.55;;;9.90;99.90;;;;;;5030915;28;20061;-60
2022/02/02 09:35:42;;;;;;;3.28;2.38;;;9.90;99.90;;;;;;5016415;28;20057;-59
2022/02/02 09:38:08;;;;;;;7.43;2.95;;;9.90;99.90;;;;;;5039304;28;20566;-58
2022/02/02 09:43:21;;;;;;;8.23;2.72;;;9.80;99.90;;;;;;5041601;28;20861;-59
2022/02/02 09:45:52;;;;;;;3.25;2.70;;;9.90;99.90;;;;;;5029555;28;20053;-58
2022/02/02 09:48:28;;;;;;;5.32;2.55;;;9.90;99.90;;;;;;5033158;28;20048;-58
2022/02/02 09:51:02;;;;;;;13.05;3.33;;;10.00;99.90;;;;;;5032942;28;20087;-59
2022/02/02 09:53:55;;;;;;;5.13;2.53;;;10.10;99.90;;;;;;5035958;28;20794;-59
2022/02/02 09:57:01;;;;;;;5.63;2.80;;;10.10;99.90;;;;;;5031088;28;20136;-59
2022/02/02 10:05:07;;;;;;;4.13;3.17;;;10.30;99.90;;;;;;5032479;28;20049;-58
2022/02/02 10:15:57;;;;;;;4.20;2.75;;;10.40;99.90;;;;;;5037850;28;20061;-59
2022/02/02 10:18:33;;;;;;;5.30;2.63;;;10.40;99.90;;;;;;5034894;28;20110;-57
2022/02/02 10:21:00;;;;;;;8.00;2.40;;;10.40;99.90;;;;;;5012084;28;20106;-60
2022/02/02 10:23:29;;;;;;;5.72;2.10;;;10.50;99.90;;;;;;5040345;28;20059;-62
2022/02/02 10:25:57;;;;;;;9.95;2.08;;;10.50;99.90;;;;;;5000158;28;20138;-57
2022/02/02 10:28:29;;;;;;;3.05;1.90;;;10.60;99.90;;;;;;5021240;28;20052;-58
2022/02/02 10:31:03;;;;;;;6.13;1.77;;;10.60;99.90;;;;;;5022932;28;20088;-59
2022/02/02 10:33:31;;;;;;;2.53;1.58;;;10.70;99.90;;;;;;5038817;28;20048;-59
2022/02/02 10:36:17;;;;;;;3.43;1.63;;;10.70;99.90;;;;;;5036292;28;20114;-58
2022/02/02 10:39:13;;;;;;;5.75;1.80;;;10.80;99.80;;;;;;5036995;28;20053;-59
2022/02/02 10:41:55;;;;;;;2.05;1.60;;;10.90;99.30;;;;;;5033297;28;20175;-58
2022/02/02 10:44:40;;;;;;;3.75;1.25;;;11.00;99.80;;;;;;5013811;28;20140;-56
2022/02/02 10:47:21;;;;;;;4.18;1.20;;;11.20;99.60;;;;;;5031831;28;20099;-59
2022/02/02 11:08:53;;;;;;;2.85;0.73;;;11.30;98.80;;;;;;5022376;28;20152;-58
2022/02/02 11:11:20;;;;;;;10.32;2.03;;;11.40;98.20;;;;;;5048470;28;20059;-58
2022/02/02 11:13:47;;;;;;;7.47;1.27;;;11.50;98.90;;;;;;5024360;28;20123;-59
2022/02/02 11:16:18;;;;;;;8.38;3.75;;;11.60;97.70;;;;;;5016005;28;20041;-58
2022/02/02 11:18:45;;;;;;;15.48;2.35;;;11.60;97.90;;;;;;5012462;28;20131;-58
2022/02/02 11:21:15;;;;;;;2.15;0.90;;;11.80;98.60;;;;;;5040754;28;20403;-59
2022/02/02 11:23:43;;;;;;;7.70;1.30;;;11.80;97.60;;;;;;5038291;28;20041;-58
2022/02/02 11:26:13;;;;;;;6.95;1.58;;;11.70;97.30;;;;;;4998192;28;20126;-58
2022/02/02 11:28:40;;;;;;;3.65;0.60;;;11.60;97.60;;;;;;5040370;28;20559;-62
2022/02/02 11:31:08;;;;;;;1.92;0.95;;;11.50;97.50;;;;;;5021933;28;20049;-59
2022/02/02 11:33:45;;;;;;;7.88;1.98;;;11.40;97.90;;;;;;5030864;28;20073;-59
2022/02/02 11:36:17;;;;;;;7.20;1.00;;;11.50;98.00;;;;;;5047056;28;20103;-59
2022/02/02 11:38:45;;;;;;;5.45;1.33;;;11.40;97.60;;;;;;5021288;28;20453;-58
2022/02/02 11:44:09;;;;;;;2.65;1.20;;;11.50;97.50;;;;;;5039521;28;20041;-59
2022/02/02 11:49:42;;;;;;;6.93;1.88;;;11.50;97.80;;;;;;5043884;28;20130;-58
2022/02/02 11:52:44;;;;;;;5.20;1.42;;;11.40;97.80;;;;;;5029307;28;20168;-58
2022/02/02 11:55:11;;;;;;;4.90;2.20;;;11.30;97.80;;;;;;5033175;28;20070;-58
2022/02/02 11:58:12;;;;;;;4.72;2.30;;;11.30;98.00;;;;;;5037652;28;20176;-59
2022/02/02 12:01:37;;;;;;;8.68;1.20;;;11.30;97.80;;;;;;5021580;28;20041;-58
2022/02/02 12:09:04;;;;;;;2.67;1.15;;;11.50;97.90;;;;;;5039670;28;20156;-58
2022/02/02 12:18:59;;;;;;;6.78;1.42;;;11.50;98.00;;;;;;5033361;28;20107;-57
2022/02/02 12:45:53;;;;;;;5.65;1.00;;;11.40;97.60;;;;;;5011042;28;20394;-58
2022/02/02 12:48:15;;;;;;;6.88;1.77;;;11.50;97.60;;;;;;5020617;28;21620;-57
2022/02/02 12:56:27;;;;;;;9.20;1.48;;;11.70;97.70;;;;;;5033483;28;20053;-59
2022/02/02 13:02:14;;;;;;;3.15;1.00;;;11.80;97.20;;;;;;4967295;28;20133;-58
2022/02/02 13:04:43;;;;;;;5.78;1.33;;;11.70;97.10;;;;;;5017510;28;20077;-56
2022/02/02 13:07:14;;;;;;;13.95;2.03;;;11.80;97.60;;;;;;5015586;28;20072;-58
2022/02/02 13:09:43;;;;;;;2.67;0.88;;;11.80;97.30;;;;;;5036200;28;20136;-57
2022/02/02 13:12:41;;;;;;;9.20;1.60;;;11.80;97.00;;;;;;5040602;28;20049;-58
2022/02/02 13:15:36;;;;;;;6.38;2.08;;;11.90;97.10;;;;;;5033092;28;20154;-59
2022/02/02 13:18:21;;;;;;;5.13;0.98;;;11.80;97.30;;;;;;5038123;28;20079;-58
2022/02/02 13:29:09;;;;;;;15.57;5.07;;;12.00;96.70;;;;;;5035369;28;20053;-59
2022/02/02 13:31:50;;;;;;;3.25;1.95;;;12.00;96.80;;;;;;5024719;28;20045;-58
2022/02/02 13:54:06;;;;;;;4.32;1.05;;;12.20;97.10;;;;;;4969243;28;20105;-57
2022/02/02 14:31:34;;;;;;;19.60;1.80;;;12.20;96.40;;;;;;5014321;28;20045;-58
2022/02/02 14:34:20;;;;;;;13.45;2.42;;;12.20;96.20;;;;;;5035483;28;20055;-57
2022/02/02 14:36:49;;;;;;;6.15;2.17;;;12.10;96.40;;;;;;5018988;28;20049;-60
2022/02/02 14:39:22;;;;;;;7.97;2.50;;;12.10;96.50;;;;;;5035678;28;20527;-58
2022/02/02 14:41:54;;;;;;;8.00;2.80;;;12.10;96.60;;;;;;5033923;28;22848;-58
2022/02/02 14:44:32;;;;;;;8.75;2.25;;;12.10;96.70;;;;;;5033940;28;20059;-59
2022/02/02 14:47:26;;;;;;;9.88;1.88;;;12.10;96.60;;;;;;5035986;28;20132;-57
2022/02/02 14:52:37;;;;;;;16.00;3.90;;;12.10;96.30;;;;;;5029167;28;19964;-57
2022/02/02 15:28:22;;;;;;;11.13;1.92;;;12.10;96.70;;;;;;5029502;28;20748;-56
2022/02/02 15:30:58;;;;;;;6.78;1.33;;;12.10;96.80;;;;;;5010325;28;20102;-57
2022/02/02 15:33:28;;;;;;;8.55;1.60;;;12.10;96.70;;;;;;5031757;28;20127;-57
2022/02/02 15:36:14;;;;;;;9.35;1.98;;;12.20;96.70;;;;;;5037665;28;20198;-56
2022/02/02 15:38:41;;;;;;;14.93;2.38;;;12.10;96.60;;;;;;5031068;28;20045;-57
2022/02/02 15:41:16;;;;;;;15.63;2.50;;;12.10;96.50;;;;;;5037982;28;20411;-53
2022/02/02 16:00:34;;;;;;;7.97;2.25;;;11.90;96.70;;;;;;5029207;28;20045;-56
2022/02/02 16:03:14;;;;;;;8.98;3.05;;;12.00;96.70;;;;;;5033479;28;20053;-58
2022/02/02 16:05:47;;;;;;;9.73;2.40;;;11.90;96.70;;;;;;5033897;28;20044;-57
2022/02/02 16:08:19;;;;;;;9.80;2.53;;;11.90;96.90;;;;;;5033940;28;20045;-58
2022/02/02 16:11:33;;;;;;;7.70;1.90;;;11.80;96.90;;;;;;5036173;28;20049;-57
2022/02/02 16:13:40;;;;;;;12.95;2.75;;;11.80;96.90;;;;;;5017833;28;20043;-57
2022/02/02 16:37:37;;;;;;;16.77;3.47;;;11.50;97.30;;;;;;5035336;28;20085;-57
2022/02/02 16:40:06;;;;;;;11.48;2.20;;;11.40;97.40;;;;;;5017994;28;20081;-56
2022/02/02 16:45:19;;;;;;;21.38;6.15;;;11.40;97.40;;;;;;5029631;28;20049;-58
2022/02/02 16:47:46;;;;;;;11.98;3.72;;;11.40;97.40;;;;;;5031603;28;20081;-56
2022/02/02 16:50:20;;;;;;;9.13;3.25;;;11.30;97.50;;;;;;5038752;28;20120;-57
2022/02/02 16:52:50;;;;;;;8.95;3.08;;;11.30;97.50;;;;;;5026728;28;20152;-55
2022/02/02 16:55:31;;;;;;;8.13;2.38;;;11.30;97.60;;;;;;5035497;28;20136;-65
2022/02/02 17:31:18;;;;;;;4.68;2.50;;;10.90;98.00;;;;;;5031431;28;20057;-57
2022/02/02 17:33:57;;;;;;;7.75;2.38;;;10.90;98.00;;;;;;5032674;28;20115;-58
2022/02/02 17:36:31;;;;;;;8.07;2.17;;;10.80;98.00;;;;;;5032910;28;20049;-58
2022/02/02 17:39:07;;;;;;;6.00;2.25;;;10.70;98.10;;;;;;5031453;28;20887;-59
2022/02/02 18:17:03;;;;;;;8.07;2.90;;;9.90;99.00;;;;;;5030138;28;20053;-58
2022/02/02 18:19:06;;;;;;;8.32;3.30;;;9.90;99.10;;;;;;5033356;28;20116;-61
2022/02/02 18:21:34;;;;;;;6.50;3.35;;;9.90;99.20;;;;;;5024454;28;20127;-57
2022/02/02 18:26:39;;;;;;;12.23;3.20;;;9.90;99.30;;;;;;5042845;28;20487;-57
2022/02/02 18:29:13;;;;;;;8.55;3.55;;;9.90;99.30;;;;;;5034353;28;20048;-58
2022/02/02 18:34:17;;;;;;;6.35;3.05;;;9.80;99.80;;;;;;5033229;28;19925;-59
2022/02/02 18:37:12;;;;;;;6.53;3.80;;;9.80;99.30;;;;;;5033087;28;20492;-56
2022/02/02 18:50:57;;;;;;;5.90;3.33;;;9.80;99.60;;;;;;5032423;28;20075;-59
2022/02/02 19:00:07;;;;;;;10.18;4.43;;;9.70;99.60;;;;;;5027676;28;20124;-58
2022/02/02 19:02:03;;;;;;;9.57;4.20;;;9.70;99.80;;;;;;5026860;28;20442;-58
2022/02/02 19:37:53;;;;;;;10.35;3.47;;;10.00;99.90;;;;;;5037344;28;20049;-58
2022/02/02 19:40:36;;;;;;;11.73;3.63;;;10.00;99.90;;;;;;5033588;28;20085;-59
2022/02/02 19:57:10;;;;;;;12.35;4.10;;;10.20;99.90;;;;;;5039347;28;20056;-58
2022/02/02 20:02:43;;;;;;;6.30;3.63;;;10.20;99.90;;;;;;5019644;28;20051;-57
2022/02/02 20:08:18;;;;;;;10.48;5.05;;;10.30;99.90;;;;;;5042027;28;20092;-60
2022/02/02 20:11:09;;;;;;;11.20;4.18;;;10.30;99.90;;;;;;5022972;28;20176;-59
2022/02/02 20:13:38;;;;;;;8.50;4.75;;;10.30;99.90;;;;;;5020996;28;20041;-58
2022/02/02 20:16:05;;;;;;;10.25;4.22;;;10.30;99.90;;;;;;5039238;28;20041;-58
2022/02/02 20:18:37;;;;;;;11.38;4.95;;;10.30;99.90;;;;;;5036061;28;20056;-59
2022/02/02 20:21:07;;;;;;;10.02;4.65;;;10.30;99.90;;;;;;5021880;28;20080;-57
2022/02/02 20:23:39;;;;;;;13.10;4.63;;;10.40;99.90;;;;;;5017409;28;20444;-59
2022/02/02 20:26:07;;;;;;;11.55;4.68;;;10.40;99.90;;;;;;5029305;28;20077;-58
2022/02/02 20:28:34;;;;;;;9.32;4.82;;;10.40;99.90;;;;;;5027339;28;20049;-58
2022/02/02 20:31:02;;;;;;;10.60;4.57;;;10.40;99.90;;;;;;5041613;28;20072;-58
2022/02/02 20:33:28;;;;;;;19.88;4.85;;;10.50;99.90;;;;;;5037418;28;20053;-59
2022/02/02 20:35:55;;;;;;;10.23;5.30;;;10.50;99.90;;;;;;5011784;28;20134;-58
2022/02/02 20:38:22;;;;;;;8.93;4.80;;;10.40;99.90;;;;;;5033768;28;20049;-58
2022/02/02 20:40:49;;;;;;;10.02;5.40;;;10.40;99.90;;;;;;5044577;28;20576;-59
2022/02/02 20:43:49;;;;;;;14.57;4.72;;;10.40;99.90;;;;;;5023030;28;20164;-58
2022/02/02 21:10:26;;;;;;;9.07;4.43;;;10.40;99.90;;;;;;5018458;28;20150;-59
2022/02/02 21:15:41;;;;;;;18.77;5.22;;;10.40;99.90;;;;;;5038275;28;20045;-60
2022/02/02 21:18:15;;;;;;;16.75;5.25;;;10.40;99.90;;;;;;5032438;28;20069;-59
2022/02/02 21:20:50;;;;;;;12.73;5.13;;;10.40;99.90;;;;;;5035683;28;20136;-58
2022/02/02 21:28:34;;;;;;;12.55;5.15;;;10.40;99.90;;;;;;5041759;28;20106;-58
2022/02/02 21:31:01;;;;;;;14.80;4.65;;;10.60;99.90;;;;;;5031146;28;20057;-63
2022/02/02 21:33:28;;;;;;;11.23;3.92;;;10.40;99.90;;;;;;5040607;28;20120;-60
2022/02/02 21:35:56;;;;;;;12.48;3.92;;;10.40;99.80;;;;;;5035991;28;20055;-58
2022/02/02 21:41:23;;;;;;;10.80;4.40;;;10.40;99.70;;;;;;5033743;28;20090;-59
2022/02/02 21:43:50;;;;;;;13.27;4.00;;;10.40;99.50;;;;;;5041367;28;20053;-57
2022/02/02 21:46:19;;;;;;;11.63;3.47;;;10.40;99.40;;;;;;5038280;28;20051;-58
2022/02/02 21:48:46;;;;;;;10.48;2.97;;;10.40;99.30;;;;;;5018788;28;20084;-58
2022/02/02 21:51:23;;;;;;;10.93;2.97;;;10.30;99.00;;;;;;5037713;28;20057;-56
2022/02/02 21:53:49;;;;;;;9.63;3.22;;;10.30;99.10;;;;;;5040862;28;20106;-57
2022/02/02 21:56:16;;;;;;;7.38;2.42;;;10.30;99.10;;;;;;5035173;28;20897;-57
2022/02/02 21:58:43;;;;;;;8.70;2.38;;;10.30;99.00;;;;;;5037363;28;20041;-57
2022/02/02 22:01:10;;;;;;;8.18;2.08;;;10.30;98.50;;;;;;5037781;28;20060;-58
2022/02/02 22:03:36;;;;;;;14.07;2.33;;;10.20;98.40;;;;;;5040522;28;20508;-59
2022/02/02 22:06:03;;;;;;;12.80;2.42;;;10.20;98.30;;;;;;5036620;28;20156;-60
2022/02/02 22:08:30;;;;;;;8.35;2.20;;;10.10;98.10;;;;;;5035310;28;20139;-57
2022/02/02 22:10:57;;;;;;;8.43;1.92;;;10.10;98.00;;;;;;5037728;28;20089;-58
2022/02/02 22:13:34;;;;;;;11.00;2.10;;;10.10;98.10;;;;;;5041216;28;20137;-59
2022/02/02 22:16:06;;;;;;;8.75;2.05;;;10.10;97.50;;;;;;5038301;28;20111;-59
2022/02/02 22:18:37;;;;;;;15.55;2.72;;;10.10;97.60;;;;;;5032893;28;20040;-59
2022/02/02 22:21:03;;;;;;;10.25;2.20;;;10.00;97.70;;;;;;5032913;28;20053;-58
2022/02/02 22:23:33;;;;;;;7.78;1.88;;;10.00;97.80;;;;;;5027719;28;20077;-59
2022/02/02 22:26:00;;;;;;;5.53;1.80;;;10.00;96.90;;;;;;5027625;28;20129;-58
2022/02/02 22:28:26;;;;;;;11.13;1.33;;;10.00;97.40;;;;;;5000868;28;20076;-58
2022/02/02 22:30:53;;;;;;;4.55;1.65;;;10.00;97.60;;;;;;5038163;28;20124;-57
2022/02/02 22:33:24;;;;;;;9.07;1.92;;;10.00;97.30;;;;;;5035780;28;20083;-58
2022/02/02 22:35:51;;;;;;;9.35;1.85;;;10.00;97.40;;;;;;5033632;28;20052;-57
2022/02/02 22:38:21;;;;;;;10.55;2.13;;;10.00;97.10;;;;;;5032675;28;20119;-58
2022/02/02 22:40:48;;;;;;;10.18;1.63;;;9.90;96.50;;;;;;5035389;28;20130;-57
2022/02/02 22:43:15;;;;;;;13.13;1.80;;;10.00;96.50;;;;;;5025842;28;20081;-58
2022/02/02 22:45:45;;;;;;;6.53;1.92;;;10.00;96.60;;;;;;5026951;28;20538;-57
2022/02/02 22:48:18;;;;;;;6.82;1.80;;;9.90;96.30;;;;;;5034788;28;20068;-59
2022/02/02 22:50:45;;;;;;;8.40;1.70;;;9.90;96.60;;;;;;5028082;28;20135;-57
2022/02/02 22:53:12;;;;;;;8.40;1.75;;;9.90;96.60;;;;;;5030999;28;20072;-55
2022/02/02 22:55:38;;;;;;;5.32;2.88;;;9.90;96.50;;;;;;5039227;28;20072;-57
2022/02/02 22:58:05;;;;;;;10.90;2.08;;;9.90;96.70;;;;;;5027295;28;20088;-59
2022/02/02 23:00:35;;;;;;;18.25;1.67;;;9.90;96.50;;;;;;5029362;28;20049;-61
2022/02/02 23:03:03;;;;;;;7.70;2.00;;;9.80;96.10;;;;;;5033665;28;20160;-56
2022/02/02 23:05:40;;;;;;;8.27;2.17;;;9.80;96.50;;;;;;5036955;28;20087;-56
2022/02/02 23:08:08;;;;;;;7.00;1.35;;;9.80;96.50;;;;;;5022452;28;20129;-59
2022/02/02 23:10:37;;;;;;;9.82;1.60;;;9.80;96.40;;;;;;5031848;28;20052;-56
2022/02/02 23:13:04;;;;;;;6.38;1.77;;;9.80;96.80;;;;;;5036620;28;20053;-59
2022/02/02 23:16:22;;;;;;;14.57;2.50;;;9.90;96.50;;;;;;5031865;28;20127;-58
2022/02/02 23:18:21;;;;;;;7.65;1.42;;;9.90;96.50;;;;;;5020841;28;20111;-56
2022/02/02 23:20:53;;;;;;;10.77;1.58;;;9.90;96.60;;;;;;5017683;28;20083;-60
2022/02/02 23:23:31;;;;;;;15.00;2.08;;;9.80;96.50;;;;;;5035576;28;20341;-56
2022/02/02 23:26:00;;;;;;;11.82;1.95;;;9.90;96.20;;;;;;5010487;28;20080;-60
2022/02/02 23:28:36;;;;;;;11.50;2.50;;;9.90;96.30;;;;;;5036940;28;20053;-58
2022/02/02 23:31:06;;;;;;;8.85;1.95;;;9.90;96.40;;;;;;5036218;28;20107;-58
2022/02/02 23:33:33;;;;;;;13.35;1.88;;;9.90;96.70;;;;;;5025776;28;20146;-57
2022/02/02 23:35:59;;;;;;;16.65;1.92;;;9.90;96.70;;;;;;5013780;28;20490;-59
2022/02/02 23:38:26;;;;;;;10.52;1.63;;;9.90;96.20;;;;;;5015303;28;20800;-56
2022/02/02 23:41:37;;;;;;;8.43;1.80;;;9.90;96.60;;;;;;5026715;28;20088;-58
2022/02/02 23:43:40;;;;;;;5.43;2.13;;;9.90;96.50;;;;;;5032532;28;20396;-57
2022/02/02 23:46:11;;;;;;;16.70;2.38;;;9.90;96.70;;;;;;5035818;28;20049;-57
2022/02/02 23:48:44;;;;;;;9.27;1.60;;;9.80;96.60;;;;;;5032857;28;20080;-57
2022/02/02 23:51:22;;;;;;;5.13;1.92;;;9.90;96.60;;;;;;5036099;28;20081;-59
2022/02/02 23:53:49;;;;;;;9.80;1.58;;;9.90;96.60;;;;;;5035799;28;20106;-59
2022/02/02 23:56:31;;;;;;;10.88;2.00;;;9.90;96.60;;;;;;5034667;28;20488;-59
2022/02/02 23:58:59;;;;;;;20.92;1.75;;;9.90;96.70;;;;;;4668426;28;10000538;-58
